Time;durP1;ratioP1;P1;durP2;ratioP2;P2;SDS_P1;SDS_P2;PMS_P1;PMS_P2;Temp;Humidity;BMP_temperature;BMP_pressure;BME280_temperature;BME280_humidity;BME280_pressure;Samples;Min_cycle;Max_cycle;Signal;HPM_P1;HPM_P2
2023/12/24 00:00:04;;;;;;;21.93;10.50;;;;;;;6.39;54.05;97940.64;1782236;80;21865;-82
2023/12/24 00:03:09;;;;;;;16.70;9.50;;;;;;;6.33;53.81;97940.12;1781045;80;21291;-83
2023/12/24 00:06:15;;;;;;;20.97;8.83;;;;;;;6.58;53.10;97949.84;1749890;82;21884;-83
2023/12/24 00:09:21;;;;;;;19.85;9.80;;;;;;;6.63;53.01;97958.20;1750154;82;21309;-83
2023/12/24 00:12:27;;;;;;;20.90;9.08;;;;;;;6.53;53.13;97960.50;1749969;82;21677;-82
2023/12/24 00:15:33;;;;;;;21.42;9.58;;;;;;;6.66;52.89;97970.02;1749528;82;22217;-82
2023/12/24 00:18:39;;;;;;;22.80;8.43;;;;;;;6.76;52.71;97976.41;1751168;80;21300;-82
2023/12/24 00:21:46;;;;;;;15.63;8.05;;;;;;;6.85;52.19;97985.49;1751328;82;21848;-83
2023/12/24 00:24:52;;;;;;;18.73;7.58;;;;;;;6.44;52.76;97978.04;1751222;82;21304;-83
2023/12/24 00:28:01;;;;;;;18.67;8.45;;;;;;;6.58;52.48;97975.66;1751981;80;21316;-82
2023/12/24 00:31:07;;;;;;;14.23;7.83;;;;;;;6.39;52.71;97984.09;1767223;81;21283;-83
2023/12/24 00:34:13;;;;;;;17.57;8.45;;;;;;;6.37;52.93;97985.66;1759689;81;21316;-83
2023/12/24 00:37:18;;;;;;;19.57;8.10;;;;;;;6.32;52.94;97991.40;1750550;82;21930;-82
2023/12/24 00:40:26;;;;;;;15.13;7.10;;;;;;;6.23;52.98;97993.46;1752300;82;21297;-82
2023/12/24 00:43:33;;;;;;;16.90;8.05;;;;;;;6.12;53.16;97986.76;1756989;80;21939;-82
2023/12/24 00:46:39;;;;;;;14.38;7.55;;;;;;;6.17;52.98;97988.86;1781879;80;21314;-83
2023/12/24 00:49:46;;;;;;;15.75;7.65;;;;;;;6.24;52.74;97997.84;1783329;80;21291;-82
2023/12/24 00:52:53;;;;;;;12.58;8.10;;;;;;;6.10;52.74;97998.84;1783232;80;21318;-82
2023/12/24 00:55:59;;;;;;;19.02;8.45;;;;;;;6.01;52.73;98005.49;1783375;80;21279;-83
2023/12/24 00:59:05;;;;;;;15.23;8.45;;;;;;;6.21;52.31;98008.27;1782140;80;21878;-83
2023/12/24 01:02:10;;;;;;;16.50;8.18;;;;;;;6.29;52.18;98003.48;1783241;80;21288;-82
2023/12/24 01:05:16;;;;;;;14.50;7.92;;;;;;;6.56;51.68;98003.55;1781894;80;21288;-82
2023/12/24 01:08:22;;;;;;;19.27;9.88;;;;;;;6.40;52.05;98004.27;1781756;80;21272;-83
2023/12/24 01:11:29;;;;;;;18.62;9.38;;;;;;;6.20;52.65;98006.59;1783241;80;21299;-82
2023/12/24 01:14:35;;;;;;;15.53;9.08;;;;;;;6.22;52.68;98008.08;1758715;80;21668;-82
2023/12/24 01:17:40;;;;;;;17.25;9.18;;;;;;;6.22;52.63;98014.88;1751898;82;21374;-83
2023/12/24 01:20:47;;;;;;;18.90;9.18;;;;;;;6.22;52.74;98023.54;1752394;82;21299;-83
2023/12/24 01:23:54;;;;;;;20.72;10.00;;;;;;;5.80;53.48;98023.55;1752407;82;21315;-83
2023/12/24 01:27:00;;;;;;;19.98;11.05;;;;;;;6.25;52.67;98022.58;1751618;82;21916;-82
2023/12/24 01:30:06;;;;;;;19.45;10.03;;;;;;;6.46;52.18;98029.76;1750761;80;21350;-82
2023/12/24 01:33:11;;;;;;;26.70;12.23;;;;;;;6.41;52.47;98029.54;1750968;82;21291;-82
2023/12/24 01:36:17;;;;;;;29.48;10.80;;;;;;;6.70;51.77;98035.13;1750894;82;21304;-82
2023/12/24 01:39:23;;;;;;;19.95;10.32;;;;;;;6.71;51.51;98042.23;1750886;82;21386;-83
2023/12/24 01:42:29;;;;;;;26.85;10.70;;;;;;;6.73;51.79;98048.80;1752368;82;21597;-82
2023/12/24 01:45:36;;;;;;;18.60;9.40;;;;;;;6.74;51.90;98043.71;1779293;80;21271;-82
2023/12/24 01:48:44;;;;;;;19.15;10.45;;;;;;;6.70;51.72;98046.00;1776630;80;21676;-83
2023/12/24 01:51:51;;;;;;;19.67;10.58;;;;;;;6.84;51.60;98046.85;1778460;80;21269;-82
2023/12/24 01:54:56;;;;;;;16.62;10.08;;;;;;;6.78;51.99;98055.84;1778644;80;21264;-83
2023/12/24 01:58:01;;;;;;;16.80;9.23;;;;;;;6.58;52.19;98053.06;1778789;80;21288;-83
2023/12/24 02:01:06;;;;;;;17.75;8.93;;;;;;;6.61;52.22;98058.09;1778672;80;21264;-83
2023/12/24 02:04:12;;;;;;;20.85;9.50;;;;;;;6.82;51.50;98063.38;1778655;80;21272;-83
2023/12/24 02:07:19;;;;;;;14.70;7.83;;;;;;;6.76;51.35;98062.82;1778702;80;21252;-83
2023/12/24 02:10:23;;;;;;;17.30;8.75;;;;;;;6.99;50.91;98061.59;1778557;80;21268;-83
2023/12/24 02:13:29;;;;;;;19.92;8.85;;;;;;;7.03;50.57;98058.78;1778528;80;21802;-83
2023/12/24 02:16:38;;;;;;;18.42;9.00;;;;;;;7.18;50.47;98066.20;1778541;80;21272;-83
2023/12/24 02:19:44;;;;;;;22.10;9.28;;;;;;;7.22;50.18;98066.11;1778664;80;21296;-83
2023/12/24 02:22:50;;;;;;;19.52;9.18;;;;;;;7.06;50.20;98076.05;1778793;80;21256;-83
2023/12/24 02:25:50;;;;;;;19.32;9.50;;;;;;;6.98;50.46;98074.88;1778729;80;22277;-83
2023/12/24 02:28:47;;;;;;;18.87;9.08;;;;;;;6.93;50.52;98082.30;1778073;80;21799;-83
2023/12/24 02:31:54;;;;;;;16.27;9.65;;;;;;;6.86;50.85;98078.19;1778467;80;21264;-83
2023/12/24 02:34:59;;;;;;;19.85;9.63;;;;;;;6.66;51.19;98081.41;1778680;80;22233;-82
2023/12/24 02:38:06;;;;;;;25.70;10.60;;;;;;;6.97;50.88;98082.20;1778763;80;21811;-83
2023/12/24 02:41:13;;;;;;;20.57;10.25;;;;;;;7.01;50.92;98080.75;1778793;80;21260;-82
2023/12/24 02:44:18;;;;;;;19.10;9.88;;;;;;;7.26;50.96;98086.39;1768304;80;21247;-82
2023/12/24 02:47:24;;;;;;;18.70;9.65;;;;;;;7.23;51.03;98090.05;1747990;82;21704;-83
2023/12/24 02:50:29;;;;;;;20.02;10.48;;;;;;;7.23;51.21;98099.56;1747422;82;21315;-82
2023/12/24 02:53:36;;;;;;;18.10;9.98;;;;;;;7.40;51.04;98101.66;1747571;82;21271;-82
2023/12/24 02:56:41;;;;;;;17.12;9.00;;;;;;;7.53;50.37;98113.08;1747802;82;21252;-83
2023/12/24 02:59:47;;;;;;;21.27;10.03;;;;;;;7.50;50.24;98112.13;1763081;81;21863;-83
2023/12/24 03:02:53;;;;;;;20.45;9.90;;;;;;;7.33;50.29;98114.41;1765829;81;21248;-83
2023/12/24 03:05:59;;;;;;;24.05;10.63;;;;;;;7.28;50.48;98111.48;1765946;81;21763;-83
2023/12/24 03:09:05;;;;;;;18.15;9.18;;;;;;;7.32;50.00;98120.91;1766084;81;21261;-83
2023/12/24 03:12:10;;;;;;;20.70;9.10;;;;;;;7.16;50.04;98124.05;1765906;81;21332;-83
2023/12/24 03:15:17;;;;;;;18.32;9.00;;;;;;;7.05;50.08;98119.20;1765628;81;21291;-83
2023/12/24 03:18:22;;;;;;;22.13;9.15;;;;;;;7.04;50.21;98121.61;1765683;81;21276;-82
2023/12/24 03:21:28;;;;;;;18.27;8.35;;;;;;;6.78;50.86;98128.68;1765687;81;21830;-83
2023/12/24 03:24:32;;;;;;;16.55;8.93;;;;;;;6.71;50.95;98131.88;1765619;81;21843;-83
2023/12/24 03:27:39;;;;;;;16.25;7.45;;;;;;;6.55;51.19;98129.02;1765884;81;21308;-83
2023/12/24 03:30:45;;;;;;;20.43;9.50;;;;;;;6.73;50.94;98138.46;1747622;81;21854;-82
2023/12/24 03:33:52;;;;;;;15.13;7.33;;;;;;;6.74;50.78;98133.37;1730061;82;21279;-82
2023/12/24 03:36:52;;;;;;;18.70;8.75;;;;;;;6.57;51.01;98141.03;1747862;82;21268;-82
2023/12/24 03:39:45;;;;;;;17.60;8.43;;;;;;;6.51;51.15;98138.61;1746096;82;21350;-83
2023/12/24 03:42:32;;;;;;;15.80;8.20;;;;;;;6.59;51.17;98141.69;1746416;82;21311;-83
2023/12/24 03:45:24;;;;;;;12.45;7.95;;;;;;;6.58;51.15;98135.91;1770897;80;21327;-82
2023/12/24 03:48:29;;;;;;;16.42;7.85;;;;;;;6.89;50.69;98157.13;1775642;80;21942;-82
2023/12/24 03:51:35;;;;;;;21.37;9.23;;;;;;;7.06;50.38;98152.16;1773733;80;21862;-82
2023/12/24 03:54:41;;;;;;;18.20;9.80;;;;;;;6.94;50.66;98161.95;1746602;82;21145;-83
2023/12/24 03:57:47;;;;;;;21.15;9.10;;;;;;;7.24;50.30;98158.33;1746113;81;21275;-83
2023/12/24 04:00:53;;;;;;;17.57;8.93;;;;;;;7.07;50.67;98169.61;1738377;82;21288;-83
2023/12/24 04:03:58;;;;;;;15.25;7.42;;;;;;;6.97;51.04;98173.78;1738812;82;21271;-83
2023/12/24 04:07:03;;;;;;;13.83;7.78;;;;;;;7.32;50.55;98175.30;1738333;80;21263;-82
2023/12/24 04:10:08;;;;;;;22.98;8.08;;;;;;;7.25;50.45;98178.55;1746999;82;21333;-82
2023/12/24 04:13:13;;;;;;;16.65;7.83;;;;;;;7.39;50.23;98187.56;1747819;80;21284;-82
2023/12/24 04:16:19;;;;;;;11.80;7.15;;;;;;;7.17;50.70;98186.88;1747748;82;21303;-82
2023/12/24 04:19:24;;;;;;;16.37;6.75;;;;;;;7.04;51.12;98191.77;1747717;82;21259;-82
2023/12/24 04:22:30;;;;;;;13.80;7.05;;;;;;;7.11;50.74;98190.44;1747819;82;21795;-83
2023/12/24 04:25:36;;;;;;;15.98;7.50;;;;;;;7.03;50.85;98196.05;1747837;82;21303;-83
2023/12/24 04:28:42;;;;;;;12.25;6.92;;;;;;;7.19;50.70;98191.58;1744470;82;21256;-82
2023/12/24 04:31:47;;;;;;;14.65;7.22;;;;;;;7.20;50.74;98197.36;1739436;82;21327;-82
2023/12/24 04:34:52;;;;;;;15.78;8.63;;;;;;;7.36;50.35;98196.95;1739751;82;21315;-82
2023/12/24 04:37:57;;;;;;;17.75;9.05;;;;;;;7.29;50.31;98199.34;1739190;82;21272;-83
2023/12/24 04:40:57;;;;;;;17.00;8.25;;;;;;;7.51;49.86;98194.56;1739504;82;21866;-82
2023/12/24 04:44:03;;;;;;;16.05;8.48;;;;;;;7.57;49.50;98192.36;1748458;80;21241;-82
2023/12/24 04:47:09;;;;;;;20.70;8.15;;;;;;;7.26;49.94;98203.33;1778686;80;21878;-83
2023/12/24 04:50:16;;;;;;;13.55;7.55;;;;;;;7.28;49.95;98203.94;1778673;80;21237;-82
2023/12/24 04:53:22;;;;;;;13.70;7.65;;;;;;;7.27;50.00;98200.08;1780491;80;21326;-83
2023/12/24 04:56:22;;;;;;;22.05;8.80;;;;;;;6.94;50.53;98209.51;1784205;80;21271;-82
2023/12/24 04:59:16;;;;;;;13.65;7.67;;;;;;;7.16;50.08;98215.96;1783849;80;21248;-83
2023/12/24 05:02:22;;;;;;;15.80;7.70;;;;;;;7.10;50.17;98213.20;1784039;80;21300;-83
2023/12/24 05:05:28;;;;;;;21.15;8.98;;;;;;;7.10;50.30;98211.84;1784300;80;21637;-83
2023/12/24 05:08:34;;;;;;;14.18;7.45;;;;;;;7.00;50.66;98222.27;1784182;80;21307;-82
2023/12/24 05:11:40;;;;;;;18.40;8.00;;;;;;;7.00;50.62;98224.47;1783917;80;21854;-83
2023/12/24 05:14:47;;;;;;;13.88;8.08;;;;;;;6.91;50.80;98227.88;1784078;80;21271;-83
2023/12/24 05:17:54;;;;;;;15.75;7.97;;;;;;;7.00;50.62;98234.50;1784043;80;21314;-83
2023/12/24 05:21:00;;;;;;;19.15;7.40;;;;;;;6.97;50.60;98232.22;1783760;80;21851;-82
2023/12/24 05:24:06;;;;;;;18.52;7.33;;;;;;;6.77;50.92;98222.61;1784144;80;21232;-83
2023/12/24 05:27:12;;;;;;;14.90;7.00;;;;;;;6.61;51.35;98230.06;1784203;80;21287;-83
2023/12/24 05:30:18;;;;;;;13.30;7.35;;;;;;;6.73;51.23;98238.50;1753148;82;21815;-82
2023/12/24 05:33:24;;;;;;;12.35;7.45;;;;;;;6.96;50.55;98240.86;1753193;82;21894;-82
2023/12/24 05:36:32;;;;;;;13.53;6.97;;;;;;;6.59;51.41;98246.27;1753203;82;21826;-82
2023/12/24 05:39:39;;;;;;;15.08;7.22;;;;;;;6.63;51.41;98257.02;1717359;83;21266;-83
2023/12/24 05:42:45;;;;;;;14.45;6.22;;;;;;;6.66;51.32;98253.91;1717179;83;21303;-83
2023/12/24 05:45:51;;;;;;;11.97;6.12;;;;;;;6.66;50.90;98260.18;1714892;83;21272;-83
2023/12/24 05:49:00;;;;;;;16.80;6.45;;;;;;;6.64;50.67;98259.56;1745330;82;21343;-82
2023/12/24 05:52:06;;;;;;;14.15;6.10;;;;;;;6.64;50.48;98253.29;1745285;82;21788;-82
2023/12/24 05:55:12;;;;;;;14.87;6.67;;;;;;;6.77;50.25;98262.84;1738646;82;21880;-83
2023/12/24 05:58:20;;;;;;;13.95;7.00;;;;;;;6.70;50.23;98267.94;1740407;82;21251;-83
2023/12/24 06:01:25;;;;;;;15.88;6.37;;;;;;;6.77;50.29;98277.78;1741699;82;21303;-83
2023/12/24 06:04:31;;;;;;;14.95;6.75;;;;;;;7.01;49.87;98279.67;1741692;82;21303;-82
2023/12/24 06:07:36;;;;;;;15.85;7.12;;;;;;;7.18;49.47;98284.55;1741632;82;21912;-82
2023/12/24 06:10:43;;;;;;;14.90;7.58;;;;;;;7.01;49.94;98290.54;1741460;82;21799;-83
2023/12/24 06:13:49;;;;;;;14.43;6.67;;;;;;;7.06;50.08;98286.72;1741325;82;21267;-83
2023/12/24 06:16:54;;;;;;;18.23;7.45;;;;;;;7.06;50.07;98295.72;1741451;82;21254;-82
2023/12/24 06:19:59;;;;;;;14.53;7.67;;;;;;;7.15;49.98;98296.34;1741359;82;21865;-83
2023/12/24 06:23:05;;;;;;;15.28;6.58;;;;;;;7.28;49.72;98297.77;1741440;82;22299;-83
2023/12/24 06:26:10;;;;;;;19.48;7.35;;;;;;;7.38;49.54;98305.01;1741711;82;21314;-82
2023/12/24 06:29:17;;;;;;;12.40;6.58;;;;;;;7.48;49.13;98302.42;1741592;82;21827;-82
2023/12/24 06:32:22;;;;;;;10.80;6.33;;;;;;;7.07;49.84;98304.70;1741593;82;21287;-82
2023/12/24 06:35:28;;;;;;;15.43;6.47;;;;;;;7.08;50.34;98300.94;1741362;82;22202;-83
2023/12/24 06:38:34;;;;;;;12.40;5.45;;;;;;;7.39;49.82;98301.27;1741641;82;21644;-83
2023/12/24 06:41:40;;;;;;;12.63;6.17;;;;;;;7.57;49.44;98303.38;1741469;82;21818;-83
2023/12/24 06:44:50;;;;;;;13.03;6.65;;;;;;;7.47;49.52;98306.19;1731297;82;21263;-82
2023/12/24 06:47:55;;;;;;;16.77;6.58;;;;;;;7.49;49.55;98311.75;1719485;82;21294;-83
2023/12/24 06:51:02;;;;;;;10.93;6.45;;;;;;;7.53;49.52;98308.08;1740646;82;21294;-83
2023/12/24 06:54:09;;;;;;;15.13;6.87;;;;;;;7.56;49.26;98311.76;1739353;82;21299;-83
2023/12/24 06:57:15;;;;;;;13.85;5.87;;;;;;;7.88;48.83;98313.70;1741504;82;21338;-83
2023/12/24 07:00:22;;;;;;;12.93;5.42;;;;;;;7.85;48.51;98315.47;1749316;82;21326;-82
2023/12/24 07:03:27;;;;;;;12.95;5.78;;;;;;;7.89;48.79;98321.34;1747987;82;21390;-83
2023/12/24 07:06:34;;;;;;;11.50;6.05;;;;;;;7.78;49.22;98313.28;1713051;83;21299;-83
2023/12/24 07:09:39;;;;;;;11.75;6.08;;;;;;;7.67;49.24;98319.34;1747738;82;21318;-82
2023/12/24 07:12:46;;;;;;;14.28;5.95;;;;;;;7.89;48.98;98331.70;1747989;80;21292;-83
2023/12/24 07:15:52;;;;;;;14.23;6.20;;;;;;;8.24;48.26;98336.99;1768539;81;21281;-82
2023/12/24 07:18:57;;;;;;;13.90;6.10;;;;;;;8.15;48.64;98334.16;1768580;81;21299;-83
2023/12/24 07:22:03;;;;;;;12.88;6.60;;;;;;;8.39;48.42;98336.81;1768791;81;21286;-83
2023/12/24 07:25:09;;;;;;;13.85;6.17;;;;;;;8.55;47.91;98339.09;1768841;81;21284;-83
2023/12/24 07:28:14;;;;;;;9.88;6.45;;;;;;;8.67;47.52;98344.75;1729851;83;21909;-83
2023/12/24 07:31:21;;;;;;;10.68;6.12;;;;;;;8.79;47.04;98350.38;1737891;82;22288;-83
2023/12/24 07:34:26;;;;;;;10.58;6.03;;;;;;;8.70;46.81;98356.57;1737957;82;21914;-82
2023/12/24 07:37:32;;;;;;;15.45;5.87;;;;;;;8.53;46.95;98349.91;1737687;82;21307;-83
2023/12/24 07:40:39;;;;;;;14.65;6.10;;;;;;;8.51;46.84;98356.07;1737403;82;21311;-83
2023/12/24 07:43:45;;;;;;;11.57;5.05;;;;;;;8.67;46.11;98362.47;1715734;82;21329;-83
2023/12/24 07:46:52;;;;;;;12.33;5.87;;;;;;;8.61;46.12;98359.20;1738997;82;21304;-83
2023/12/24 07:49:57;;;;;;;11.30;5.92;;;;;;;8.79;45.66;98364.84;1738869;82;21351;-83
2023/12/24 07:53:04;;;;;;;13.45;5.75;;;;;;;8.66;45.79;98364.89;1737809;82;21315;-83
2023/12/24 07:56:10;;;;;;;13.78;6.30;;;;;;;8.75;45.57;98366.34;1730300;82;21333;-83
2023/12/24 07:59:15;;;;;;;12.95;5.25;;;;;;;8.65;45.71;98371.36;1698420;83;21341;-83
2023/12/24 08:02:21;;;;;;;12.35;5.17;;;;;;;8.53;45.96;98378.52;1694107;84;21290;-83
2023/12/24 08:05:27;;;;;;;11.68;6.33;;;;;;;8.45;46.01;98379.02;1694956;84;21326;-83
2023/12/24 08:08:32;;;;;;;16.12;7.08;;;;;;;8.53;45.72;98380.71;1695055;84;21299;-83
2023/12/24 08:11:38;;;;;;;17.48;7.45;;;;;;;8.73;45.52;98387.50;1700281;84;21337;-83
2023/12/24 08:14:44;;;;;;;14.00;6.70;;;;;;;8.72;45.78;98394.02;1695881;84;21302;-83
2023/12/24 08:17:51;;;;;;;11.38;5.78;;;;;;;8.50;46.11;98391.19;1695398;84;21319;-82
2023/12/24 08:20:57;;;;;;;10.50;5.78;;;;;;;8.19;46.97;98388.53;1695024;84;21967;-83
2023/12/24 08:24:03;;;;;;;15.72;6.50;;;;;;;8.13;47.01;98384.73;1694312;84;21346;-83
2023/12/24 08:27:08;;;;;;;11.18;6.15;;;;;;;8.37;46.49;98386.03;1702076;82;21344;-82
2023/12/24 08:30:14;;;;;;;13.20;6.75;;;;;;;8.38;46.51;98387.73;1706465;84;21310;-83
2023/12/24 08:33:21;;;;;;;12.53;5.78;;;;;;;8.43;46.41;98389.84;1706577;84;21339;-82
2023/12/24 08:36:28;;;;;;;12.03;6.67;;;;;;;8.57;46.11;98390.67;1707141;84;21400;-82
2023/12/24 08:39:33;;;;;;;12.93;7.00;;;;;;;8.43;46.28;98389.31;1707433;84;21322;-83
2023/12/24 08:42:32;;;;;;;15.70;7.22;;;;;;;8.40;46.53;98385.63;1707481;82;21317;-83
2023/12/24 08:45:25;;;;;;;12.07;6.80;;;;;;;8.69;46.01;98387.61;1730421;82;21291;-82
2023/12/24 08:48:30;;;;;;;16.77;7.62;;;;;;;8.67;45.95;98382.91;1736747;82;21324;-83
2023/12/24 08:51:36;;;;;;;14.50;6.33;;;;;;;8.89;45.77;98386.22;1736302;82;21327;-83
2023/12/24 08:54:43;;;;;;;16.80;6.85;;;;;;;8.84;45.87;98386.02;1735801;82;21323;-83
2023/12/24 08:57:49;;;;;;;15.23;6.95;;;;;;;9.00;45.52;98383.39;1707694;82;21915;-83
2023/12/24 09:00:54;;;;;;;15.70;6.40;;;;;;;8.88;46.03;98381.30;1700910;84;21336;-82
2023/12/24 09:04:00;;;;;;;10.08;6.10;;;;;;;9.00;45.92;98382.86;1701132;84;21717;-83
2023/12/24 09:07:05;;;;;;;15.95;6.47;;;;;;;8.94;45.69;98391.38;1701460;84;21813;-83
2023/12/24 09:10:11;;;;;;;13.55;7.10;;;;;;;9.12;45.65;98395.30;1702093;84;21372;-83
2023/12/24 09:13:17;;;;;;;12.93;6.72;;;;;;;9.03;45.75;98389.23;1702125;83;21905;-83
2023/12/24 09:16:22;;;;;;;14.38;6.90;;;;;;;9.32;45.25;98397.47;1703257;84;21311;-83
2023/12/24 09:19:28;;;;;;;12.73;7.20;;;;;;;9.11;45.42;98395.00;1704329;84;21276;-82
2023/12/24 09:22:34;;;;;;;12.85;6.28;;;;;;;9.15;45.36;98402.54;1703839;84;21956;-83
2023/12/24 09:25:33;;;;;;;12.57;6.77;;;;;;;9.22;45.41;98397.05;1702529;84;21989;-83
2023/12/24 09:28:39;;;;;;;15.68;7.40;;;;;;;9.26;45.35;98397.47;1703130;83;21951;-83
2023/12/24 09:31:45;;;;;;;13.40;6.85;;;;;;;9.66;44.80;98397.64;1703167;84;21308;-82
2023/12/24 09:34:50;;;;;;;10.80;6.33;;;;;;;9.29;45.37;98397.89;1701950;84;21871;-82
2023/12/24 09:37:55;;;;;;;11.35;6.33;;;;;;;9.11;45.99;98401.81;1702809;84;21989;-83
2023/12/24 09:41:01;;;;;;;12.78;5.30;;;;;;;9.21;45.79;98410.39;1703122;84;21356;-82
2023/12/24 09:44:07;;;;;;;11.63;6.90;;;;;;;9.37;45.49;98415.39;1713304;83;21272;-83
2023/12/24 09:47:13;;;;;;;13.60;6.83;;;;;;;9.36;45.49;98421.05;1731040;83;21351;-82
2023/12/24 09:50:18;;;;;;;17.45;7.08;;;;;;;9.33;45.45;98423.69;1732056;83;21320;-83
2023/12/24 09:53:24;;;;;;;12.55;6.25;;;;;;;9.50;45.14;98436.86;1730793;83;21356;-83
2023/12/24 09:56:29;;;;;;;15.23;6.45;;;;;;;9.72;44.83;98431.42;1730847;83;21862;-82
2023/12/24 09:59:35;;;;;;;14.18;6.75;;;;;;;9.71;44.59;98433.32;1730912;83;21328;-83
2023/12/24 10:02:41;;;;;;;12.65;7.00;;;;;;;9.38;45.01;98435.33;1732655;83;21636;-83
2023/12/24 10:06:10;;;;;;;11.88;6.25;;;;;;;9.10;45.54;98426.89;1731867;83;21347;-83
2023/12/24 10:09:17;;;;;;;15.15;5.85;;;;;;;9.12;45.58;98426.14;1732511;83;21249;-82
2023/12/24 10:12:23;;;;;;;16.45;7.33;;;;;;;9.30;45.50;98421.38;1732410;83;21316;-83
2023/12/24 10:15:32;;;;;;;13.40;5.85;;;;;;;9.34;45.68;98418.54;1732702;83;21292;-82
2023/12/24 10:18:38;;;;;;;12.37;6.17;;;;;;;9.07;46.11;98429.20;1733459;82;22166;-83
2023/12/24 10:21:45;;;;;;;14.53;7.08;;;;;;;9.04;46.13;98424.19;1770396;81;21248;-83
2023/12/24 10:24:50;;;;;;;14.78;6.78;;;;;;;9.17;45.69;98424.14;1770246;81;21804;-83
2023/12/24 10:27:56;;;;;;;10.72;7.00;;;;;;;9.06;45.54;98428.89;1770526;81;22124;-83
2023/12/24 10:31:16;;;;;;;12.88;6.30;;;;;;;8.91;45.68;98429.13;1770667;81;21858;-83
2023/12/24 10:34:25;;;;;;;14.07;7.30;;;;;;;8.83;45.84;98427.44;1770494;81;21858;-82
2023/12/24 10:37:31;;;;;;;14.65;6.83;;;;;;;8.87;45.95;98427.34;1762455;81;21823;-83
2023/12/24 10:40:37;;;;;;;14.55;6.87;;;;;;;9.19;45.29;98430.23;1770724;81;21253;-83
2023/12/24 10:43:44;;;;;;;11.12;6.55;;;;;;;8.83;46.00;98436.98;1770475;81;21252;-82
2023/12/24 10:46:51;;;;;;;11.00;6.53;;;;;;;8.59;46.58;98440.34;1768899;81;21307;-83
2023/12/24 10:49:57;;;;;;;11.83;6.42;;;;;;;8.60;46.92;98447.46;1768844;81;21288;-82
2023/12/24 10:53:03;;;;;;;13.93;6.78;;;;;;;8.66;46.85;98454.30;1768780;81;21911;-82
2023/12/24 10:56:10;;;;;;;9.63;6.28;;;;;;;8.73;46.98;98460.27;1768637;81;21891;-82
2023/12/24 10:59:23;;;;;;;14.35;6.33;;;;;;;8.89;46.79;98462.06;1769918;81;21279;-82
2023/12/24 11:02:29;;;;;;;11.53;6.33;;;;;;;9.12;46.23;98467.58;1770392;81;21823;-82
2023/12/24 11:05:53;;;;;;;9.83;5.70;;;;;;;8.90;46.58;98457.45;1770258;81;21862;-82
2023/12/24 11:08:59;;;;;;;16.23;7.17;;;;;;;8.74;47.03;98460.58;1770694;81;21324;-82
2023/12/24 11:12:05;;;;;;;14.73;7.40;;;;;;;8.64;47.07;98471.89;1770613;81;21768;-82
2023/12/24 11:15:06;;;;;;;9.88;5.30;;;;;;;8.70;47.02;98461.02;1770307;81;21807;-83
2023/12/24 11:18:12;;;;;;;13.88;6.05;;;;;;;8.78;46.70;98465.40;1770149;81;21316;-82
2023/12/24 11:21:21;;;;;;;15.48;6.97;;;;;;;8.71;46.77;98461.85;1770372;81;21257;-83
2023/12/24 11:24:29;;;;;;;15.40;7.72;;;;;;;8.66;47.19;98464.37;1770365;81;21874;-83
2023/12/24 11:27:58;;;;;;;14.63;7.03;;;;;;;8.89;46.63;98470.24;1769861;81;21921;-83
2023/12/24 11:31:08;;;;;;;11.93;7.47;;;;;;;8.76;46.94;98468.87;1740166;82;21287;-82
2023/12/24 11:34:14;;;;;;;14.33;6.40;;;;;;;8.90;46.65;98470.55;1740014;82;21284;-83
2023/12/24 11:37:20;;;;;;;12.82;6.53;;;;;;;8.83;47.08;98471.59;1739930;82;21296;-82
2023/12/24 11:40:26;;;;;;;15.58;7.35;;;;;;;8.58;47.72;98477.66;1712632;82;21340;-83
2023/12/24 11:43:31;;;;;;;13.10;6.30;;;;;;;8.94;47.00;98481.88;1746702;81;21247;-82
2023/12/24 11:46:40;;;;;;;14.28;6.70;;;;;;;9.29;46.47;98490.64;1768760;81;21287;-82
2023/12/24 11:49:45;;;;;;;12.10;5.95;;;;;;;9.24;46.34;98487.72;1768603;81;21256;-82
2023/12/24 11:52:52;;;;;;;11.18;6.22;;;;;;;8.83;47.05;98491.51;1768811;81;21264;-83
2023/12/24 11:56:25;;;;;;;11.25;6.92;;;;;;;9.20;46.71;98496.84;1768924;81;21277;-83
2023/12/24 11:59:30;;;;;;;13.25;6.50;;;;;;;9.03;46.55;98494.75;1770036;81;21297;-82
2023/12/24 12:02:37;;;;;;;18.65;6.72;;;;;;;8.70;47.33;98505.98;1783728;80;21936;-83
2023/12/24 12:05:41;;;;;;;12.68;6.50;;;;;;;8.67;47.36;98505.56;1783879;80;21268;-82
2023/12/24 12:08:48;;;;;;;12.53;6.37;;;;;;;8.88;47.19;98510.80;1783785;80;21272;-82
2023/12/24 12:11:54;;;;;;;12.75;6.95;;;;;;;9.14;46.62;98514.06;1783839;80;21851;-83
2023/12/24 12:15:00;;;;;;;13.22;5.72;;;;;;;8.48;47.32;98520.00;1783518;80;21275;-83
2023/12/24 12:18:06;;;;;;;10.03;5.75;;;;;;;8.16;48.43;98525.10;1782945;80;21263;-83
2023/12/24 12:21:13;;;;;;;11.88;6.65;;;;;;;7.82;49.26;98537.73;1782552;80;21256;-82
2023/12/24 12:24:21;;;;;;;12.63;6.10;;;;;;;8.25;48.66;98540.22;1782731;80;21315;-83
2023/12/24 12:27:26;;;;;;;10.80;6.12;;;;;;;8.48;48.16;98545.87;1782050;79;21294;-83
2023/12/24 12:30:31;;;;;;;12.20;6.10;;;;;;;8.56;48.15;98549.75;1748528;81;21267;-82
2023/12/24 12:33:37;;;;;;;12.40;6.30;;;;;;;8.43;48.24;98553.30;1740890;82;21267;-83
2023/12/24 12:36:44;;;;;;;9.15;5.25;;;;;;;8.82;47.65;98557.99;1740602;82;21258;-83
2023/12/24 12:39:49;;;;;;;16.02;6.80;;;;;;;8.65;47.76;98571.16;1740980;82;21302;-83
2023/12/24 12:42:55;;;;;;;11.03;5.47;;;;;;;8.38;48.73;98583.05;1741389;80;21821;-82
2023/12/24 12:46:01;;;;;;;13.03;6.55;;;;;;;8.89;47.83;98589.34;1764326;80;21650;-83
2023/12/24 12:49:07;;;;;;;13.10;5.33;;;;;;;9.03;47.32;98594.30;1742116;82;21346;-83
2023/12/24 12:52:12;;;;;;;11.33;5.87;;;;;;;9.50;46.53;98597.34;1742038;82;21286;-82
2023/12/24 12:55:17;;;;;;;11.18;6.60;;;;;;;9.34;46.70;98590.97;1741996;82;21377;-82
2023/12/24 12:58:22;;;;;;;13.22;6.53;;;;;;;9.26;47.00;98596.09;1744106;80;21310;-83
2023/12/24 13:01:27;;;;;;;12.05;6.45;;;;;;;9.15;47.36;98603.02;1750605;82;21291;-83
2023/12/24 13:04:39;;;;;;;15.35;6.12;;;;;;;9.34;46.98;98595.89;1747377;82;21288;-83
2023/12/24 13:07:44;;;;;;;15.90;6.42;;;;;;;8.77;48.05;98610.94;1747681;82;21291;-82
2023/12/24 13:10:49;;;;;;;10.23;5.97;;;;;;;8.67;48.37;98618.67;1747795;82;21846;-83
2023/12/24 13:13:55;;;;;;;16.93;6.50;;;;;;;8.72;48.59;98610.72;1747656;80;21351;-82
2023/12/24 13:17:14;;;;;;;13.95;6.10;;;;;;;8.92;48.11;98623.86;1747944;82;21263;-82
2023/12/24 13:20:21;;;;;;;12.30;6.33;;;;;;;8.53;48.91;98631.94;1747760;82;21272;-82
2023/12/24 13:23:29;;;;;;;14.38;6.83;;;;;;;8.87;48.30;98640.00;1747712;82;21264;-83
2023/12/24 13:26:28;;;;;;;11.70;6.47;;;;;;;8.42;49.18;98641.52;1747851;82;21839;-83
2023/12/24 13:29:21;;;;;;;11.43;5.50;;;;;;;8.72;48.64;98638.50;1740635;82;21276;-82
2023/12/24 13:32:08;;;;;;;11.33;6.20;;;;;;;9.62;47.19;98638.51;1739779;82;21665;-82
2023/12/24 13:35:02;;;;;;;12.53;7.08;;;;;;;9.71;46.52;98642.70;1739414;82;21839;-83
2023/12/24 13:38:11;;;;;;;12.18;6.90;;;;;;;8.80;48.16;98659.61;1739842;82;21288;-83
2023/12/24 13:41:15;;;;;;;12.05;5.97;;;;;;;8.15;49.58;98662.33;1739625;82;21312;-83
2023/12/24 13:44:20;;;;;;;12.90;6.67;;;;;;;7.27;51.56;98663.75;1752450;80;21288;-83
2023/12/24 13:47:26;;;;;;;12.50;6.33;;;;;;;7.79;50.74;98672.86;1778560;80;21256;-83
2023/12/24 13:50:34;;;;;;;15.00;6.62;;;;;;;7.80;50.67;98677.78;1778498;80;21328;-83
2023/12/24 13:53:40;;;;;;;15.43;8.43;;;;;;;7.98;50.69;98675.92;1778432;80;21251;-83
2023/12/24 13:56:46;;;;;;;11.78;7.03;;;;;;;6.99;52.34;98680.83;1778487;80;21870;-82
2023/12/24 13:59:52;;;;;;;13.35;6.95;;;;;;;6.75;53.35;98681.19;1778501;80;21271;-83
2023/12/24 14:02:59;;;;;;;11.03;7.30;;;;;;;6.71;53.93;98693.47;1779269;80;21303;-83
2023/12/24 14:06:06;;;;;;;13.13;6.92;;;;;;;6.78;54.52;98693.05;1784219;80;21252;-83
2023/12/24 14:09:13;;;;;;;17.17;7.22;;;;;;;7.12;53.70;98700.01;1784288;80;21287;-82
2023/12/24 14:12:19;;;;;;;13.35;7.62;;;;;;;6.90;53.96;98698.30;1784387;80;21296;-82
2023/12/24 14:15:24;;;;;;;14.45;6.72;;;;;;;7.01;54.14;98707.81;1784830;80;21881;-82
2023/12/24 14:18:30;;;;;;;13.28;7.58;;;;;;;7.19;53.99;98702.78;1784728;80;21254;-82
2023/12/24 14:21:36;;;;;;;10.85;7.00;;;;;;;7.30;53.54;98710.97;1784787;80;21318;-83
2023/12/24 14:24:41;;;;;;;11.95;7.20;;;;;;;7.27;53.59;98716.26;1784651;80;21247;-83
2023/12/24 14:27:47;;;;;;;16.52;8.23;;;;;;;7.08;54.15;98719.62;1784090;80;21849;-83
2023/12/24 14:30:53;;;;;;;15.60;7.42;;;;;;;7.07;54.41;98731.53;1768916;81;21259;-83
2023/12/24 14:33:58;;;;;;;14.07;7.12;;;;;;;6.96;54.83;98736.93;1769063;81;21236;-83